Friedrich Kuhn

Scout - SC Freiburg
4 Apr 2027
Sunday
Process

Personality

Adaptability (7) Ambition (10) Controversy (10) Loyalty (16) Pressure (8) Professionalism (13) Sportsmanship (17) Temperament (8)

Profile

Coaching Style Democratic
License Continental A
Determination 11
Man Management 11
Motivating 14
Discipline 12
Job Satisfaction
62%
Fatigue
0%
Role Scout
Wage 75.4K p/w
Contract 14.03.2028

Performance

Behaviour Good
Training Effectiveness
32%
Player Development
40%
Injury Prevention
30%
Tactical Implementation
55%

Recent Events

Attended a recruitment meeting 7d ago
Attended a recruitment meeting 7d ago
Attended a recruitment meeting 14d ago
Attended a recruitment meeting 14d ago
Attended a recruitment meeting 21d ago
Attended a recruitment meeting 21d ago
Birthday 21d ago
Attended a recruitment meeting 28d ago

Currently Monitoring

135
Player Club Status Ability Confidence Watched Last Observed Latest Vote
Mika Mármol Feyenoord Active 133 / 131 40% 1 13.01.2027 -
Gabriel Sara Galatasaray Active 139 / 136 40% 1 13.01.2027 -
Ngal'Ayel Mukau LOSC Lille Active 142 / 148 40% 1 13.01.2027 -
Josh Coburn Millwall Active 118 / 111 40% 4 31.12.2026 -
Sorriso Famalicao Active 132 / 118 40% 5 31.12.2026 -
Brayan Gil Baltika Active 126 / 137 40% 1 31.12.2026 -
Marco Pineda VfB Stuttgart Active 144 / 151 40% 4 30.12.2026 -
Mateo Cassierra Atlético Mineiro Active 132 / 141 40% 3 30.12.2026 -
Mehdi Ghayedi Al Nasr Active 125 / 111 40% 3 30.12.2026 -
Radek Vítek Middlesbrough Active 140 / 138 40% 4 29.12.2026 -
Igor Nikić Mirandés Active 123 / 127 40% 2 29.12.2026 -
Iñaki Peña Panathinaikos Active 150 / 158 40% 1 29.12.2026 -
Leandro Trossard Besiktas Active 156 / 165 40% 6 27.12.2026 -
Nicolò Tresoldi Club Brugge Active 135 / 145 40% 6 27.12.2026 -
Fashion Sakala Al-Fayha Active 129 / 107 40% 3 27.12.2026 -
Jakub Stolarczyk Leicester City Active 139 / 126 40% 3 26.12.2026 -
Memphis Depay Corinthians Active 155 / 163 40% 5 26.12.2026 -
Pascal Loretz Luzern Active 125 / 128 40% 3 26.12.2026 -
George Wickens Lincoln City Active 110 / 127 40% 2 26.12.2026 -
Florián Monzón Atlas Active 118 / 115 40% 3 25.12.2026 -
Josias Lukembila Sion Active 116 / 129 40% 4 25.12.2026 -
Will Lankshear Middlesbrough Active 124 / 119 40% 1 25.12.2026 -
Michy Fellaini KV Oostende Active 135 / 133 40% 4 23.12.2026 -
Moussa Dembélé Al-Ettifaq Active 125 / 149 40% 2 23.12.2026 -
Cesar Corona Veracruz Active 141 / 136 40% 9 22.12.2026 -
Nicolás Ibáñez Cruz Azul Active 140 / 123 40% 5 22.12.2026 -
Mathias Pereira Lage St. Pauli Active 138 / 124 40% 2 22.12.2026 -
Carlos Vinícius Grêmio Active 142 / 154 40% 3 21.12.2026 -
Achraf Bencharki Al Ahly Active 131 / 121 40% 4 21.12.2026 -
Juan Carlos Arana Racing Santander Active 126 / 135 40% 3 20.12.2026 -
Gonzalo Plata Dinamo Moscow Active 129 / 136 40% 2 20.12.2026 -
Soufiane Rahimi Al Ain Active 130 / 144 40% 1 18.12.2026 -
José Arnáiz Granada Active 133 / 132 40% 3 16.12.2026 -
Nicolás Fernández Belgrano Active 134 / 106 40% 1 16.12.2026 -
Luciano Gondou CSKA Moscow Active 139 / 145 40% 1 15.12.2026 -
Alexis Vega Toluca Active 154 / 136 40% 7 12.12.2026 -
Munir Albacete Active 125 / 122 40% 4 12.12.2026 -
Adriano Bertaccini Anderlecht Active 130 / 113 40% 1 11.12.2026 -
Martijn Kaars St. Pauli Active 124 / 110 40% 1 11.12.2026 -
Chupete Málaga Active 122 / 142 40% 1 11.12.2026 -
Mads Hedenstad AGF Active 120 / 130 40% 1 11.12.2026 -
Carl Rushworth Coventry City Active 141 / 133 40% 2 09.12.2026 -
Elia Caprile Cagliari Active 139 / 155 40% 1 09.12.2026 -
Sem Westerveld Zaragoza Active 118 / 107 40% 1 09.12.2026 -
Pedro Flamengo Active 140 / 124 40% 2 08.12.2026 -
Rey Manaj Sivasspor Active 124 / 136 40% 1 08.12.2026 -
Hany Mukhtar Hamburger SV Active 133 / 126 40% 1 08.12.2026 -
Paulinho Palmeiras Active 151 / 156 40% 4 03.12.2026 -
Ferran Jutglà Celta Active 136 / 135 40% 1 03.12.2026 -
Jason Januzaj Mouscron Active 151 / 138 40% 4 01.12.2026 -
Maurits Kjærgaard Red Bull Salzburg Active 134 / 142 40% 6 30.11.2026 -
Duk Atlas Active 116 / 127 40% 1 30.11.2026 -
Chris Brady Chicago Fire Active 122 / 127 40% 2 29.11.2026 -
Justin Hammel Grasshopper Active 124 / 110 40% 3 29.11.2026 -
Gabriel Brazão Santos Active 129 / 119 40% 1 29.11.2026 -
Yorbe Vertessen Red Bull Salzburg Active 131 / 115 40% 5 27.11.2026 -
Musa Barrow Al-Khaleej Active 133 / 143 40% 4 23.11.2026 -
Andrin Hunziker St. Gallen Active 113 / 121 40% 4 22.11.2026 -
Sinan Karweina Luzern Active 113 / 105 40% 4 22.11.2026 -
Guilherme Fernandes Córdoba Active 135 / 125 40% 1 22.11.2026 -
Grégoire Coudert Burnley Active 127 / 128 40% 1 22.11.2026 -
Robin Risser RC Lens Active 139 / 148 40% 1 21.11.2026 -
Jean-Luc Morin Tours Lost 138 / 146 40% 7 19.11.2026 Monitor
Jorge Pascual Granada Active 130 / 144 40% 5 19.11.2026 Monitor
Exequiel Zeballos Boca Juniors Active 138 / 140 40% 6 18.11.2026 -
James Trafford Leeds United Active 142 / 135 40% 1 18.11.2026 -
Christian Früchtl Red Bull Salzburg Active 112 / 112 40% 1 18.11.2026 -
Talisca Fenerbahce Lost 149 / 130 40% 4 17.11.2026 -
Rilind Nivokazi Sion Active 113 / 108 40% 2 15.11.2026 -
Dejan Djokic Vaduz Active 96 / 109 40% 4 15.11.2026 -
Ousmane Camara Castellón Active 124 / 117 40% 1 15.11.2026 -
Alan Velasco Boca Juniors Active 130 / 119 40% 7 10.11.2026 -
Juan-José Perea Zurich Active 123 / 128 40% 1 09.11.2026 -
Matteo di Giusto Luzern Active 126 / 128 40% 2 08.11.2026 -
Urko Izeta Cádiz Active 129 / 132 40% 3 08.11.2026 -
Mousa Meunier KV Oostende Active 130 / 125 40% 1 08.11.2026 -
Luca Orellano Monterrey Active 137 / 127 40% 3 07.11.2026 -
Tom Cannon Sheffield United Active 128 / 137 40% 1 07.11.2026 -
Richard Koné Queens Park Rangers Active 118 / 115 40% 1 05.11.2026 -
Efraín Álvarez Guadalajara Active 133 / 130 40% 3 02.11.2026 -
Lukas Gütlbauer Wolfsberger AC Active 111 / 113 40% 1 01.11.2026 -
Bertrand Traoré Sunderland Active 136 / 137 40% 1 30.10.2026 -
José Manuel López Palmeiras Active 140 / 145 40% 1 24.10.2026 -
Robin Roefs Sunderland Active 139 / 153 40% 1 24.10.2026 -
Mauro Silveira Junior Active 125 / 126 40% 1 24.10.2026 -
Marvin Keller Young Boys Active 133 / 147 40% 1 24.10.2026 -
Anthony Patterson Wrexham Active 133 / 122 40% 2 23.10.2026 -
Jamie Cumming Oxford United Active 117 / 110 40% 2 23.10.2026 -
Jon Bautista Eibar Active 124 / 136 40% 2 21.10.2026 -
Kévin Denkey FC Cincinnati Active 128 / 110 40% 2 18.10.2026 -
Talles Magno New York City Active 122 / 117 40% 4 16.10.2026 -
Yuma Suzuki Kashima Antlers Active 136 / 134 40% 2 16.10.2026 -
Diego López Valencia Active 142 / 147 40% 1 15.10.2026 -
Leo Ceara Kashima Antlers Active 140 / 156 40% 2 10.10.2026 -
Dániel Gazdag Columbus Crew Active 125 / 147 40% 2 10.10.2026 -
Luis Vázquez Birmingham Active 134 / 121 40% 1 10.10.2026 -
Niklas Steffen Thun Active 123 / 110 40% 2 07.10.2026 -
Nicolás Sumavil Platense Active 118 / 117 40% 2 07.10.2026 -
Michael Cooper Sheffield United Active 123 / 128 40% 1 07.10.2026 -
Sam Surridge Nashville SC Active 139 / 135 40% 2 06.10.2026 -
Manfred Ugalde Spartak Moscow Active 137 / 136 40% 2 03.10.2026 -
Ángel Correa River Plate Active 134 / 158 40% 2 01.10.2026 -
Oli McBurnie Hull City Active 129 / 133 40% 4 30.09.2026 -
Kostantis Tzolakis Hull City Active 135 / 147 40% 1 28.09.2026 -
Diego Conde Villarreal Active 131 / 126 40% 1 28.09.2026 -
Anthony Racioppi Sion Active 119 / 111 40% 1 27.09.2026 -
Sebastián Villa Boca Juniors Active 120 / 144 40% 1 24.09.2026 -
Luiz Júnior Villarreal Active 142 / 149 40% 3 19.09.2026 -
Patrick Schulte Columbus Crew Active 128 / 138 40% 1 19.09.2026 -
Karl Hein Werder Bremen Active 128 / 147 40% 1 19.09.2026 -
Tim Kleindienst Borussia Mönchengladbach Active 149 / 151 40% 3 17.09.2026 -
Diber Cambindo Leon Active 120 / 146 40% 1 17.09.2026 -
Toni Martínez Alavés Active 133 / 127 40% 1 16.09.2026 -
Ignacio Russo Tigre Active 118 / 147 40% 1 15.09.2026 -
Agustín Venezia Iquique Active 110 / 105 40% 1 15.09.2026 -
Jefry Zapata Once Caldas Active 126 / 122 40% 1 15.09.2026 -
Arijanet Murić Sassuolo Active 137 / 129 40% 1 14.09.2026 -
Jonas Urbig Bayern Munich Active 134 / 125 40% 1 14.09.2026 -
Andrés Martín Racing Santander Active 130 / 130 40% 1 10.09.2026 -
Cristian Barros Cerro Active 102 / 116 40% 1 07.09.2026 -
Tomás Chancalay Minnesota United FC Active 124 / 137 40% 1 06.09.2026 -
Philippe Keny Zurich Active 116 / 107 40% 1 05.09.2026 -
Vitor Roque Palmeiras Active 132 / 161 40% 1 04.09.2026 -
Lucas Boyé Alavés Active 143 / 151 40% 1 03.09.2026 -
Gorka Guruzeta Athletic Bilbao Active 146 / 139 40% 1 03.09.2026 -
Diego Rossi Monterrey Active 126 / 132 40% 1 02.09.2026 -
Martin Terrier Bayer Leverkusen Active 137 / 127 40% 1 02.09.2026 -
Lucas Ocampos West Ham United Active 147 / 141 40% 1 31.08.2026 -
Uwe Franke Mouscron Active 125 / 135 40% 1 21.08.2026 -
Petar Musa FC Dallas Active 140 / 141 40% 1 21.08.2026 -
Christian Kofane Bayer Leverkusen Active 132 / 129 40% 1 21.08.2026 -
Nikolaus Wurmbrand Brighton Active 113 / 126 40% 1 19.08.2026 -
Jean-Mattéo Bahoya Eintracht Frankfurt Active 136 / 136 40% 1 19.08.2026 -
Leo Castledine Middlesbrough Active 125 / 140 40% 1 19.08.2026 -
Can Uzun Eintracht Frankfurt Active 134 / 132 40% 1 01.08.2026 -